Madonna, Vermont
Current Conditions -  °F | °C
As of 6:54 AM on Thursday 29 Jan 2015 (Local Time) from KMVL Reporting Station
Clear Clear  
Wind Chill: -17°   Ceiling: Unl
Heat Index: -17°   Visibility: 9mi
Dew Point: -22°   Wind: 0mph
Humidity: 78%   Direction: NA
Pressure: 30.32"   Gusts: NA
Location:  44.6639°N, 72.7787°W
Report Text: KMVL 291154Z AUTO 00000KT 9SM CLR M27/M30 A3032 RMK AO2 SLP292 T12721300 11222 21272 53001 TSNO
Loading
Personal Weather Stations






























Interactive Weather Map New forecast layout! Learn more

10-Day Weather Forecast

Advertisements
Track Severe Weather on mobile